Time;durP1;ratioP1;P1;durP2;ratioP2;P2;SDS_P1;SDS_P2;PMS_P1;PMS_P2;Temp;Humidity;BMP_temperature;BMP_pressure;BME280_temperature;BME280_humidity;BME280_pressure;Samples;Min_cycle;Max_cycle;Signal;HPM_P1;HPM_P2
2022/03/29 00:00:56;;;;;;;21.30;9.93;;;11.60;56.50;;;;;;5010810;28;20441;-78
2022/03/29 00:03:22;;;;;;;22.30;9.80;;;11.60;57.00;;;;;;5027867;28;20444;-77
2022/03/29 00:05:48;;;;;;;23.13;11.70;;;11.60;57.00;;;;;;5011493;28;20512;-76
2022/03/29 00:08:13;;;;;;;20.07;10.73;;;11.60;56.80;;;;;;5026460;28;20653;-77
2022/03/29 00:10:39;;;;;;;18.87;9.63;;;11.60;56.10;;;;;;5014813;28;20468;-76
2022/03/29 00:13:05;;;;;;;17.37;9.50;;;11.60;56.80;;;;;;5011464;28;20228;-76
2022/03/29 00:15:31;;;;;;;22.83;9.77;;;11.50;57.00;;;;;;5012962;28;20461;-78
2022/03/29 00:17:57;;;;;;;22.10;11.07;;;11.50;57.30;;;;;;5011133;28;20190;-79
2022/03/29 00:20:23;;;;;;;20.17;9.80;;;11.50;57.20;;;;;;5013041;28;20678;-79
2022/03/29 00:22:50;;;;;;;14.97;9.53;;;11.40;57.20;;;;;;5004057;28;20516;-78
2022/03/29 00:25:17;;;;;;;19.47;10.27;;;11.40;57.60;;;;;;5011968;28;20226;-78
2022/03/29 00:27:43;;;;;;;17.83;9.57;;;11.40;57.60;;;;;;4995206;28;20429;-78
2022/03/29 00:30:15;;;;;;;17.17;8.87;;;11.30;57.70;;;;;;5008768;28;20602;-79
2022/03/29 00:32:41;;;;;;;20.23;9.97;;;11.20;58.00;;;;;;5011757;28;20448;-77
2022/03/29 00:35:09;;;;;;;17.80;9.70;;;11.20;58.50;;;;;;4998935;28;20445;-80
2022/03/29 00:37:36;;;;;;;20.23;9.10;;;11.20;58.50;;;;;;5005651;28;20429;-79
2022/03/29 00:40:02;;;;;;;17.33;9.70;;;11.20;58.50;;;;;;5007889;28;20442;-79
2022/03/29 00:42:28;;;;;;;21.13;9.60;;;11.10;58.70;;;;;;5011052;28;20889;-78
2022/03/29 00:44:56;;;;;;;17.20;10.10;;;11.10;58.90;;;;;;5012361;28;20435;-80
2022/03/29 00:47:22;;;;;;;17.47;9.50;;;11.10;59.10;;;;;;5005937;28;20248;-79
2022/03/29 00:49:48;;;;;;;18.03;9.40;;;11.10;59.10;;;;;;5015517;28;20472;-79
2022/03/29 00:52:15;;;;;;;26.10;9.53;;;11.10;59.30;;;;;;4999097;28;20455;-78
2022/03/29 00:54:41;;;;;;;18.33;9.97;;;11.00;59.50;;;;;;5018420;28;20847;-79
2022/03/29 00:57:08;;;;;;;20.50;9.10;;;11.00;59.60;;;;;;5008664;28;20425;-79
2022/03/29 00:59:33;;;;;;;18.40;9.00;;;11.00;59.70;;;;;;5017311;28;20431;-78
2022/03/29 01:02:00;;;;;;;18.70;10.20;;;11.00;59.70;;;;;;5013182;28;20504;-79
2022/03/29 01:04:27;;;;;;;19.20;9.40;;;10.90;60.00;;;;;;4994706;28;20226;-77
2022/03/29 01:06:58;;;;;;;17.67;9.97;;;10.90;60.00;;;;;;5008941;28;20915;-79
2022/03/29 01:09:29;;;;;;;22.70;10.90;;;10.90;60.10;;;;;;5014404;28;20496;-76
2022/03/29 01:11:57;;;;;;;21.30;9.87;;;10.90;60.40;;;;;;5023003;28;20433;-78
2022/03/29 01:14:24;;;;;;;18.57;9.00;;;10.90;60.30;;;;;;5025922;28;20454;-79
2022/03/29 01:19:40;;;;;;;18.17;9.73;;;10.90;60.60;;;;;;5019466;28;20506;-79
2022/03/29 01:22:10;;;;;;;17.47;9.53;;;10.90;60.70;;;;;;5008888;28;20435;-79
2022/03/29 01:24:37;;;;;;;17.53;8.77;;;10.90;60.90;;;;;;5019356;28;20424;-77
2022/03/29 01:27:07;;;;;;;17.60;9.80;;;10.90;60.90;;;;;;5013910;28;20424;-80
2022/03/29 01:29:34;;;;;;;20.63;9.67;;;10.90;61.00;;;;;;5018141;28;20473;-81
2022/03/29 01:32:06;;;;;;;19.20;9.27;;;10.90;61.20;;;;;;5008567;28;20432;-79
2022/03/29 01:34:34;;;;;;;18.30;9.10;;;10.90;61.00;;;;;;5010263;28;20421;-80
2022/03/29 01:37:00;;;;;;;14.87;9.50;;;10.80;61.20;;;;;;5015659;28;20420;-81
2022/03/29 01:39:26;;;;;;;23.27;10.03;;;10.70;61.50;;;;;;5016430;28;20421;-79
2022/03/29 01:41:51;;;;;;;21.67;9.80;;;10.70;61.50;;;;;;5012641;28;20457;-78
2022/03/29 01:44:17;;;;;;;18.13;10.10;;;10.60;61.50;;;;;;4987414;28;20236;-79
2022/03/29 01:46:44;;;;;;;19.27;10.30;;;10.50;61.60;;;;;;5011171;28;20594;-80
2022/03/29 01:49:10;;;;;;;23.30;10.03;;;10.40;62.00;;;;;;4987473;28;20213;-81
2022/03/29 01:51:36;;;;;;;19.63;10.20;;;10.40;62.20;;;;;;5012092;28;20865;-78
2022/03/29 01:54:02;;;;;;;17.90;10.07;;;10.50;62.30;;;;;;5017916;28;20966;-78
2022/03/29 01:56:31;;;;;;;16.30;9.40;;;10.50;62.30;;;;;;5014570;28;20182;-79
2022/03/29 01:59:05;;;;;;;17.40;9.50;;;10.40;62.50;;;;;;5018128;28;20491;-78
2022/03/29 02:01:38;;;;;;;18.07;9.40;;;10.50;62.80;;;;;;5018614;28;20471;-79
2022/03/29 02:04:04;;;;;;;21.50;10.77;;;10.50;62.90;;;;;;5019112;28;20538;-77
2022/03/29 02:06:29;;;;;;;19.60;9.30;;;10.50;62.80;;;;;;5014675;28;20912;-76
2022/03/29 02:08:57;;;;;;;20.57;10.17;;;10.40;62.90;;;;;;5028079;28;20204;-80
2022/03/29 02:11:23;;;;;;;17.07;8.80;;;10.40;62.90;;;;;;5021516;28;20174;-79
2022/03/29 02:13:49;;;;;;;16.77;9.53;;;10.40;62.90;;;;;;5022323;28;20440;-78
2022/03/29 02:16:14;;;;;;;19.47;9.00;;;10.50;62.80;;;;;;5023902;28;20210;-79
2022/03/29 02:18:40;;;;;;;18.23;8.90;;;10.50;62.80;;;;;;5018538;28;20572;-76
2022/03/29 02:21:06;;;;;;;17.73;8.87;;;10.50;62.60;;;;;;5015545;28;20196;-76
2022/03/29 02:23:32;;;;;;;15.83;8.93;;;10.40;62.60;;;;;;5012246;28;20782;-78
2022/03/29 02:25:57;;;;;;;17.10;8.80;;;10.50;62.60;;;;;;5013458;28;20251;-78
2022/03/29 02:28:23;;;;;;;16.60;8.70;;;10.40;62.60;;;;;;4993842;28;20443;-78
2022/03/29 02:30:49;;;;;;;17.20;9.40;;;10.40;62.60;;;;;;5012553;28;20531;-79
2022/03/29 02:33:15;;;;;;;19.10;9.40;;;10.40;62.60;;;;;;5004587;28;20320;-78
2022/03/29 02:35:42;;;;;;;15.90;9.33;;;10.50;62.30;;;;;;5013060;28;20220;-77
2022/03/29 02:38:11;;;;;;;23.60;9.60;;;10.40;62.30;;;;;;5012461;28;20425;-79
2022/03/29 02:40:38;;;;;;;16.40;9.20;;;10.50;62.50;;;;;;4989534;28;20429;-77
2022/03/29 02:43:04;;;;;;;16.63;8.77;;;10.50;62.30;;;;;;4988950;28;20457;-79
2022/03/29 02:45:30;;;;;;;19.10;8.90;;;10.50;62.50;;;;;;5013385;28;20435;-78
2022/03/29 02:47:58;;;;;;;17.57;9.37;;;10.50;62.50;;;;;;4995758;28;20426;-78
2022/03/29 02:50:25;;;;;;;22.50;9.90;;;10.50;62.20;;;;;;5014100;28;20660;-79
2022/03/29 02:52:56;;;;;;;21.60;9.30;;;10.50;61.90;;;;;;4999834;28;20818;-77
2022/03/29 02:55:27;;;;;;;21.77;9.40;;;10.60;60.70;;;;;;5001097;28;20421;-79
2022/03/29 02:57:54;;;;;;;22.80;10.83;;;10.60;59.90;;;;;;5015261;28;20421;-79
2022/03/29 03:00:20;;;;;;;22.17;11.17;;;10.60;59.70;;;;;;5018949;28;20456;-77
2022/03/29 03:02:47;;;;;;;22.23;11.20;;;10.60;60.00;;;;;;5018022;28;20448;-80
2022/03/29 03:05:14;;;;;;;22.50;11.03;;;10.60;60.00;;;;;;4998858;28;20432;-80
2022/03/29 03:07:41;;;;;;;26.17;13.00;;;10.60;60.30;;;;;;5014043;28;20432;-77
2022/03/29 03:10:07;;;;;;;21.33;12.83;;;10.50;60.00;;;;;;4995143;28;20971;-77
2022/03/29 03:12:45;;;;;;;24.10;12.23;;;10.50;59.90;;;;;;5013076;28;20970;-78
2022/03/29 03:15:14;;;;;;;21.10;12.13;;;10.50;59.90;;;;;;5014344;28;20425;-78
2022/03/29 03:17:40;;;;;;;27.67;12.27;;;10.40;60.00;;;;;;5016393;28;20919;-76
2022/03/29 03:20:07;;;;;;;25.70;11.93;;;10.40;60.40;;;;;;5018938;28;20429;-77
2022/03/29 03:22:35;;;;;;;21.10;12.00;;;10.40;60.30;;;;;;5019648;28;20498;-75
2022/03/29 03:25:02;;;;;;;27.80;12.13;;;10.40;60.40;;;;;;5022719;28;20451;-78
2022/03/29 03:27:28;;;;;;;23.20;12.50;;;10.40;60.40;;;;;;5003364;28;20501;-79
2022/03/29 03:29:53;;;;;;;25.20;12.43;;;10.30;60.90;;;;;;5022238;28;20507;-79
2022/03/29 03:32:19;;;;;;;20.57;11.70;;;10.30;60.70;;;;;;5021274;28;20201;-77
2022/03/29 03:34:45;;;;;;;23.33;11.60;;;10.30;60.70;;;;;;4994904;28;20182;-77
2022/03/29 03:37:11;;;;;;;28.60;11.87;;;10.30;60.60;;;;;;5010056;28;20189;-79
2022/03/29 03:39:37;;;;;;;24.43;12.10;;;10.20;60.90;;;;;;5004103;28;20195;-77
2022/03/29 03:42:09;;;;;;;29.70;13.40;;;10.10;61.60;;;;;;5009109;28;20431;-78
2022/03/29 03:44:35;;;;;;;25.27;12.37;;;10.10;60.90;;;;;;5008520;28;20449;-79
2022/03/29 03:47:02;;;;;;;20.10;10.53;;;10.10;60.10;;;;;;5004398;28;20501;-77
2022/03/29 03:49:28;;;;;;;22.43;11.57;;;9.90;60.10;;;;;;4999328;28;20472;-78
2022/03/29 03:51:54;;;;;;;23.73;11.13;;;9.80;60.70;;;;;;5019360;28;20923;-78
2022/03/29 03:54:20;;;;;;;27.17;12.03;;;9.80;60.90;;;;;;5020549;28;20468;-77
2022/03/29 03:56:46;;;;;;;19.70;10.77;;;9.70;61.20;;;;;;5019111;28;20178;-76
2022/03/29 03:59:12;;;;;;;24.60;11.40;;;9.60;61.60;;;;;;5002263;28;20443;-77
2022/03/29 04:01:37;;;;;;;23.13;12.03;;;9.50;61.60;;;;;;5023974;28;20182;-77
2022/03/29 04:04:03;;;;;;;23.10;12.00;;;9.60;61.60;;;;;;5008260;28;20285;-77
2022/03/29 04:06:29;;;;;;;22.23;11.50;;;9.50;61.70;;;;;;5027552;28;20190;-78
2022/03/29 04:08:55;;;;;;;22.87;11.50;;;9.40;61.70;;;;;;5020338;28;20861;-77
2022/03/29 04:11:21;;;;;;;25.87;11.30;;;9.30;62.00;;;;;;5004824;28;20182;-76
2022/03/29 04:13:46;;;;;;;21.73;11.03;;;9.30;62.30;;;;;;5017670;28;20229;-79
2022/03/29 04:16:12;;;;;;;21.77;11.67;;;9.30;62.60;;;;;;5006412;28;20251;-76
2022/03/29 04:18:38;;;;;;;24.70;11.90;;;9.30;62.50;;;;;;5019874;28;20182;-77
2022/03/29 04:21:08;;;;;;;24.27;12.10;;;9.20;62.80;;;;;;5026830;28;20475;-78
2022/03/29 04:23:36;;;;;;;30.53;11.80;;;9.20;62.80;;;;;;5017460;28;20451;-77
2022/03/29 04:26:03;;;;;;;21.17;11.07;;;9.10;62.90;;;;;;5015238;28;20421;-77
2022/03/29 04:28:29;;;;;;;26.33;12.90;;;9.10;63.10;;;;;;4999336;28;20429;-74
2022/03/29 04:30:55;;;;;;;24.57;10.60;;;9.20;63.10;;;;;;5016051;28;20424;-76
2022/03/29 04:33:27;;;;;;;27.37;11.90;;;9.20;63.70;;;;;;5002758;28;20681;-76
2022/03/29 04:35:53;;;;;;;25.23;11.60;;;9.30;64.20;;;;;;5010929;28;20512;-77
2022/03/29 04:38:19;;;;;;;22.20;11.43;;;9.30;64.50;;;;;;5016217;28;20448;-78
2022/03/29 04:40:45;;;;;;;23.57;11.70;;;9.40;64.10;;;;;;5025131;28;20270;-77
2022/03/29 04:43:11;;;;;;;22.97;11.63;;;9.30;64.10;;;;;;5032769;28;20452;-79
2022/03/29 04:45:38;;;;;;;24.03;9.93;;;9.30;64.10;;;;;;5008858;28;20970;-77
2022/03/29 04:48:04;;;;;;;26.33;11.37;;;9.30;64.40;;;;;;5032856;28;20181;-77
2022/03/29 04:50:29;;;;;;;22.90;11.27;;;9.30;65.00;;;;;;5033406;28;20479;-80
2022/03/29 04:52:55;;;;;;;21.10;10.87;;;9.30;65.00;;;;;;5034280;28;20444;-75
2022/03/29 04:55:21;;;;;;;20.30;10.57;;;9.30;65.00;;;;;;5018600;28;20178;-75
2022/03/29 04:57:49;;;;;;;25.40;12.20;;;9.30;65.00;;;;;;5014991;28;20420;-76
2022/03/29 05:00:17;;;;;;;22.27;11.40;;;9.30;65.00;;;;;;4997147;28;20439;-76
2022/03/29 05:02:44;;;;;;;31.60;11.83;;;9.30;64.80;;;;;;5014737;28;20445;-75
2022/03/29 05:05:11;;;;;;;24.47;11.60;;;9.20;64.40;;;;;;5014578;28;20954;-74
2022/03/29 05:07:37;;;;;;;25.87;12.37;;;9.30;64.40;;;;;;5014497;28;20444;-76
2022/03/29 05:10:08;;;;;;;21.80;12.20;;;9.20;64.40;;;;;;5013644;28;21093;-76
2022/03/29 05:12:47;;;;;;;21.83;11.13;;;9.20;65.30;;;;;;5009927;28;20448;-75
2022/03/29 05:15:16;;;;;;;24.73;12.57;;;9.30;65.00;;;;;;5012696;28;21015;-76
2022/03/29 05:17:42;;;;;;;23.70;10.53;;;9.30;65.00;;;;;;5014358;28;20839;-75
2022/03/29 05:20:10;;;;;;;21.90;11.50;;;9.20;65.30;;;;;;5014462;28;20448;-76
2022/03/29 05:22:49;;;;;;;21.30;11.40;;;9.20;65.30;;;;;;5009196;28;20904;-77
2022/03/29 05:25:17;;;;;;;21.73;10.90;;;9.20;65.30;;;;;;4993484;28;20484;-74
2022/03/29 05:27:44;;;;;;;28.53;12.40;;;9.20;65.00;;;;;;5006719;28;20429;-76
2022/03/29 05:30:11;;;;;;;20.60;10.13;;;9.20;65.30;;;;;;5014500;28;20472;-76
2022/03/29 05:32:37;;;;;;;23.63;10.50;;;9.20;65.30;;;;;;5013610;28;20931;-75
2022/03/29 05:35:04;;;;;;;21.50;10.73;;;9.30;65.00;;;;;;4993877;28;20421;-76
2022/03/29 05:37:29;;;;;;;21.97;11.80;;;9.40;64.80;;;;;;5014255;28;20436;-77
2022/03/29 05:39:55;;;;;;;20.70;11.83;;;9.40;65.00;;;;;;5010540;28;20436;-76
2022/03/29 05:42:21;;;;;;;23.23;11.20;;;9.40;65.00;;;;;;5015666;28;20206;-76
2022/03/29 05:44:47;;;;;;;20.33;11.03;;;9.40;65.00;;;;;;5019244;28;20182;-77
2022/03/29 05:49:58;;;;;;;26.67;11.00;;;9.50;65.10;;;;;;5011138;28;20521;-78
2022/03/29 05:52:25;;;;;;;24.00;11.30;;;9.50;64.70;;;;;;5007387;28;20955;-77
2022/03/29 05:54:50;;;;;;;20.47;11.37;;;9.60;64.40;;;;;;4997816;28;20317;-74
2022/03/29 05:57:17;;;;;;;22.50;12.17;;;9.60;64.20;;;;;;5013718;28;20520;-77
2022/03/29 05:59:45;;;;;;;25.97;12.00;;;9.60;64.50;;;;;;5010609;28;20182;-76
2022/03/29 06:02:11;;;;;;;25.40;11.50;;;9.70;64.50;;;;;;4989406;28;20571;-75
2022/03/29 06:04:37;;;;;;;22.87;11.43;;;9.80;63.70;;;;;;5014161;28;20507;-76
2022/03/29 06:07:04;;;;;;;21.87;12.70;;;9.90;63.50;;;;;;5013652;28;20869;-77
2022/03/29 06:09:34;;;;;;;24.00;11.70;;;10.00;63.20;;;;;;5014304;28;20464;-75
2022/03/29 06:12:00;;;;;;;29.20;12.13;;;10.00;63.10;;;;;;5009888;28;20424;-78
2022/03/29 06:14:26;;;;;;;26.70;12.23;;;10.00;63.20;;;;;;4997505;28;20819;-75
2022/03/29 06:16:52;;;;;;;26.90;12.57;;;10.00;63.10;;;;;;5014554;28;20531;-75
2022/03/29 06:19:19;;;;;;;29.87;12.27;;;10.10;63.40;;;;;;5015580;28;20492;-76
2022/03/29 06:21:44;;;;;;;31.80;11.60;;;10.20;62.30;;;;;;5020140;28;20425;-76
2022/03/29 06:24:11;;;;;;;24.60;11.47;;;10.20;61.90;;;;;;5022061;28;20449;-77
2022/03/29 06:26:39;;;;;;;22.20;11.73;;;10.30;61.70;;;;;;5018904;28;20252;-77
2022/03/29 06:29:09;;;;;;;25.03;12.27;;;10.40;61.20;;;;;;5019492;28;20552;-78
2022/03/29 06:31:36;;;;;;;23.10;11.93;;;10.50;61.00;;;;;;5020053;28;20426;-77
2022/03/29 06:34:02;;;;;;;28.00;12.23;;;10.60;60.90;;;;;;5017738;28;20540;-76
2022/03/29 06:36:28;;;;;;;24.07;12.53;;;10.80;60.40;;;;;;5015008;28;20425;-77
2022/03/29 06:38:54;;;;;;;31.80;12.30;;;10.90;59.60;;;;;;5013941;28;20432;-75
2022/03/29 06:41:21;;;;;;;29.07;13.63;;;11.00;58.80;;;;;;5014034;28;20423;-75
2022/03/29 06:43:47;;;;;;;28.27;12.90;;;11.10;58.90;;;;;;5014291;28;20614;-76
2022/03/29 06:46:13;;;;;;;30.60;14.77;;;11.10;58.80;;;;;;5001049;28;20435;-77
2022/03/29 06:48:44;;;;;;;29.33;13.17;;;11.20;58.80;;;;;;5013842;28;20516;-75
2022/03/29 06:51:14;;;;;;;33.33;14.47;;;11.20;58.80;;;;;;5014307;28;20459;-76
2022/03/29 06:53:41;;;;;;;31.43;15.07;;;11.20;58.50;;;;;;5006107;28;20543;-76
2022/03/29 06:56:07;;;;;;;35.10;14.47;;;11.20;58.20;;;;;;5013837;28;20969;-76
2022/03/29 06:58:36;;;;;;;40.17;15.83;;;11.20;58.20;;;;;;5014151;28;20426;-75
2022/03/29 07:01:03;;;;;;;41.27;14.70;;;11.20;58.50;;;;;;5013329;28;20425;-78
2022/03/29 07:03:35;;;;;;;32.87;13.77;;;11.10;58.70;;;;;;5013604;28;20816;-76
2022/03/29 07:06:02;;;;;;;36.80;15.40;;;11.00;58.80;;;;;;4995844;28;20515;-76
2022/03/29 07:08:29;;;;;;;31.17;15.03;;;11.00;58.90;;;;;;5012738;28;20508;-76
2022/03/29 07:13:41;;;;;;;33.37;14.83;;;11.30;58.70;;;;;;5012893;28;20856;-75
2022/03/29 07:16:09;;;;;;;35.13;14.90;;;11.50;58.40;;;;;;5012839;28;20467;-76
2022/03/29 07:18:35;;;;;;;30.80;15.10;;;11.50;57.70;;;;;;5012211;28;20417;-75
2022/03/29 07:21:01;;;;;;;36.00;13.97;;;11.60;57.80;;;;;;5013099;28;20472;-76
2022/03/29 07:23:27;;;;;;;31.17;14.30;;;11.80;57.00;;;;;;5006712;28;20460;-75
2022/03/29 07:25:53;;;;;;;33.60;14.33;;;11.90;56.50;;;;;;5012671;28;20186;-77
2022/03/29 07:28:20;;;;;;;27.07;15.13;;;11.90;56.60;;;;;;4993815;28;20440;-77
2022/03/29 07:30:46;;;;;;;24.80;13.33;;;11.90;56.40;;;;;;5014772;28;20461;-75
2022/03/29 07:33:13;;;;;;;31.43;15.47;;;12.00;56.10;;;;;;5015065;28;20471;-76
2022/03/29 07:35:39;;;;;;;37.00;15.27;;;11.90;56.20;;;;;;5016785;28;20501;-77
2022/03/29 07:38:08;;;;;;;36.77;16.00;;;11.90;56.50;;;;;;5011295;28;20449;-77
2022/03/29 07:40:37;;;;;;;33.87;15.10;;;12.10;56.50;;;;;;5022482;28;20428;-76
2022/03/29 07:43:04;;;;;;;42.17;15.80;;;12.20;56.00;;;;;;5014087;28;20456;-77
2022/03/29 07:45:31;;;;;;;34.17;15.23;;;12.30;55.60;;;;;;5025640;28;20417;-79
2022/03/29 07:47:57;;;;;;;35.20;16.03;;;12.40;55.60;;;;;;5014705;28;20440;-78
2022/03/29 07:50:26;;;;;;;32.73;16.17;;;12.40;55.20;;;;;;5012065;28;20464;-78
2022/03/29 07:52:52;;;;;;;34.17;16.47;;;12.50;55.00;;;;;;5011314;28;20440;-76
2022/03/29 07:55:18;;;;;;;39.17;14.43;;;12.60;54.80;;;;;;5011927;28;20538;-75
2022/03/29 07:57:45;;;;;;;39.80;16.43;;;12.60;54.80;;;;;;5011603;28;20444;-75
2022/03/29 08:00:31;;;;;;;30.87;15.20;;;12.70;54.80;;;;;;5012077;28;21050;-78
2022/03/29 08:03:04;;;;;;;39.83;16.60;;;12.80;54.60;;;;;;5011698;28;20543;-77
2022/03/29 08:05:31;;;;;;;34.40;15.63;;;12.80;54.50;;;;;;5004958;28;20922;-76
2022/03/29 08:07:58;;;;;;;31.80;16.00;;;12.90;54.20;;;;;;5005412;28;20425;-77
2022/03/29 08:10:28;;;;;;;39.37;15.97;;;12.90;53.80;;;;;;5011520;28;20468;-78
2022/03/29 08:13:03;;;;;;;36.10;16.63;;;12.90;54.10;;;;;;5015387;28;20444;-79
2022/03/29 08:15:29;;;;;;;48.20;18.10;;;12.90;54.10;;;;;;5018503;28;20460;-77
2022/03/29 08:17:57;;;;;;;34.97;16.93;;;13.00;54.20;;;;;;5007443;28;20437;-78
2022/03/29 08:20:23;;;;;;;38.40;16.97;;;12.90;54.00;;;;;;4990120;28;20808;-76
2022/03/29 08:22:48;;;;;;;37.53;16.20;;;12.90;54.10;;;;;;5011632;28;20518;-77
2022/03/29 08:25:15;;;;;;;40.90;16.53;;;12.90;54.20;;;;;;5012173;28;20491;-76
2022/03/29 08:27:42;;;;;;;36.43;15.70;;;13.00;54.60;;;;;;4994458;28;20225;-79
2022/03/29 08:30:10;;;;;;;36.90;15.63;;;13.20;53.80;;;;;;5009316;28;21257;-76
2022/03/29 08:32:36;;;;;;;32.33;15.57;;;13.40;53.20;;;;;;5010355;28;20428;-77
2022/03/29 08:35:04;;;;;;;36.83;16.70;;;13.50;52.60;;;;;;5011551;28;20932;-77
2022/03/29 08:37:29;;;;;;;39.63;16.57;;;13.60;52.50;;;;;;5011105;28;20796;-76
2022/03/29 08:39:55;;;;;;;43.10;16.93;;;13.50;52.40;;;;;;4992125;28;20433;-77
2022/03/29 08:42:23;;;;;;;32.63;15.23;;;13.40;52.40;;;;;;5010637;28;20273;-77
2022/03/29 08:44:49;;;;;;;33.50;15.60;;;13.40;52.60;;;;;;5004483;28;20473;-78
2022/03/29 08:47:16;;;;;;;37.50;16.47;;;13.60;52.20;;;;;;5002899;28;20426;-78
2022/03/29 08:49:44;;;;;;;37.73;15.53;;;13.70;51.60;;;;;;5007787;28;20555;-77
2022/03/29 08:52:11;;;;;;;35.93;15.40;;;13.80;51.40;;;;;;4999340;28;20432;-79
2022/03/29 08:54:37;;;;;;;29.93;16.07;;;14.10;50.90;;;;;;4990168;28;20441;-76
2022/03/29 08:57:03;;;;;;;36.37;14.90;;;14.20;50.20;;;;;;5006919;28;20507;-76
2022/03/29 08:59:29;;;;;;;33.63;17.20;;;14.20;49.90;;;;;;5006813;28;20424;-78
2022/03/29 09:01:57;;;;;;;32.17;15.50;;;14.20;50.60;;;;;;5010565;28;20525;-77
2022/03/29 09:04:24;;;;;;;34.40;17.00;;;14.40;50.20;;;;;;5011979;28;20496;-76
2022/03/29 09:06:50;;;;;;;32.10;16.20;;;14.60;50.10;;;;;;5015276;28;20791;-76
2022/03/29 09:09:30;;;;;;;36.27;15.30;;;14.60;49.90;;;;;;5015585;28;20454;-76
2022/03/29 09:11:58;;;;;;;32.57;16.43;;;14.60;50.20;;;;;;5015518;28;20190;-78
2022/03/29 09:14:29;;;;;;;35.53;16.43;;;14.80;49.70;;;;;;5019979;28;20479;-77
2022/03/29 09:16:55;;;;;;;35.90;15.70;;;15.00;48.70;;;;;;5022864;28;20441;-75
2022/03/29 09:19:25;;;;;;;31.63;15.33;;;15.10;48.50;;;;;;5022053;28;20456;-78
2022/03/29 09:21:54;;;;;;;31.93;15.50;;;15.20;48.30;;;;;;5014602;28;20551;-76
2022/03/29 09:24:20;;;;;;;37.60;15.73;;;15.30;48.10;;;;;;5015492;28;20449;-76
2022/03/29 09:26:52;;;;;;;31.50;16.50;;;15.50;47.70;;;;;;5019866;28;20932;-77
2022/03/29 09:29:25;;;;;;;31.03;15.20;;;15.50;47.40;;;;;;5012159;28;20510;-77
2022/03/29 09:32:07;;;;;;;30.47;15.03;;;15.50;47.40;;;;;;5018976;28;20423;-78
2022/03/29 09:34:33;;;;;;;31.50;15.90;;;15.60;46.30;;;;;;4995205;28;20427;-78
2022/03/29 09:37:01;;;;;;;31.40;14.37;;;15.80;45.90;;;;;;5013273;28;20474;-78
2022/03/29 09:39:41;;;;;;;31.63;15.17;;;15.90;45.30;;;;;;5015144;28;20506;-78
2022/03/29 09:42:19;;;;;;;27.63;14.97;;;15.90;45.00;;;;;;5006015;28;20421;-77
2022/03/29 09:44:47;;;;;;;34.30;14.23;;;16.00;44.60;;;;;;5014243;28;20432;-76
2022/03/29 09:47:15;;;;;;;24.73;12.33;;;16.10;44.30;;;;;;4998182;28;20432;-78
2022/03/29 09:50:09;;;;;;;28.37;12.60;;;16.00;43.70;;;;;;5015721;28;20498;-78
2022/03/29 09:52:38;;;;;;;32.00;14.30;;;16.00;43.90;;;;;;5015804;28;20445;-78
2022/03/29 09:55:16;;;;;;;28.30;13.90;;;16.00;44.30;;;;;;5010000;28;20476;-78
2022/03/29 09:57:47;;;;;;;23.70;13.27;;;16.10;43.80;;;;;;5014095;28;20522;-77
2022/03/29 10:00:17;;;;;;;31.90;15.73;;;16.20;43.70;;;;;;4991224;28;20434;-78
2022/03/29 10:02:45;;;;;;;30.80;13.47;;;16.40;43.50;;;;;;5009775;28;20836;-78
2022/03/29 10:05:12;;;;;;;26.73;14.30;;;16.40;43.40;;;;;;5005965;28;20440;-76
2022/03/29 10:10:47;;;;;;;29.10;14.17;;;16.60;43.00;;;;;;5008352;28;21024;-76
2022/03/29 10:13:15;;;;;;;27.73;13.90;;;16.80;42.80;;;;;;5013162;28;20448;-79
2022/03/29 10:15:42;;;;;;;28.70;13.90;;;16.90;42.30;;;;;;5012313;28;20926;-77
2022/03/29 10:18:08;;;;;;;26.53;14.27;;;16.90;42.30;;;;;;5007971;28;20420;-78
2022/03/29 10:20:35;;;;;;;23.27;12.80;;;16.80;42.00;;;;;;5010786;28;20416;-77
2022/03/29 10:23:02;;;;;;;22.43;12.77;;;16.90;42.20;;;;;;4994536;28;20486;-78
2022/03/29 10:25:29;;;;;;;27.93;14.07;;;17.10;41.60;;;;;;5009760;28;20427;-77
2022/03/29 10:27:56;;;;;;;24.70;12.73;;;17.20;41.50;;;;;;5006927;28;20490;-78
2022/03/29 10:30:39;;;;;;;29.00;13.87;;;17.30;40.80;;;;;;5009121;28;20551;-79
2022/03/29 10:33:24;;;;;;;26.47;13.23;;;17.40;41.00;;;;;;5001812;28;20856;-78
2022/03/29 10:36:02;;;;;;;28.60;13.73;;;17.40;41.20;;;;;;5015233;28;20420;-76
2022/03/29 10:38:45;;;;;;;23.07;13.03;;;17.50;40.80;;;;;;5011678;28;20417;-77
2022/03/29 10:41:26;;;;;;;29.80;13.00;;;17.60;40.40;;;;;;5017696;28;20778;-78
2022/03/29 10:43:54;;;;;;;23.70;13.00;;;17.90;39.90;;;;;;4999050;28;21026;-76
2022/03/29 10:46:38;;;;;;;27.97;13.63;;;18.20;39.80;;;;;;5015632;28;20459;-78
2022/03/29 10:49:31;;;;;;;28.63;13.97;;;18.50;38.40;;;;;;5013185;28;20467;-78
2022/03/29 10:52:19;;;;;;;26.77;13.50;;;18.40;38.40;;;;;;5006509;28;20422;-76
2022/03/29 10:54:45;;;;;;;27.63;13.47;;;18.40;38.30;;;;;;5004241;28;20632;-74
2022/03/29 10:57:20;;;;;;;28.03;14.33;;;18.20;39.20;;;;;;5006096;28;20530;-76
2022/03/29 11:00:12;;;;;;;33.43;15.60;;;18.20;39.20;;;;;;5007783;28;20432;-76
2022/03/29 11:02:59;;;;;;;29.53;13.63;;;18.20;39.60;;;;;;4996869;28;20473;-77
2022/03/29 11:05:25;;;;;;;27.60;14.70;;;18.20;39.80;;;;;;5013306;28;20429;-77
2022/03/29 11:07:53;;;;;;;25.33;14.30;;;18.10;39.80;;;;;;4996401;28;20425;-77
2022/03/29 11:10:37;;;;;;;28.97;15.53;;;18.00;39.90;;;;;;4996211;28;20197;-79
2022/03/29 11:13:22;;;;;;;31.70;16.23;;;17.90;40.20;;;;;;5016131;28;20432;-75
2022/03/29 11:15:48;;;;;;;25.13;13.57;;;18.10;40.20;;;;;;5030238;28;20443;-77
2022/03/29 11:18:32;;;;;;;33.23;13.50;;;18.20;40.00;;;;;;5033392;28;20432;-76
2022/03/29 11:21:02;;;;;;;36.37;14.67;;;18.40;39.60;;;;;;5036333;28;20443;-75
2022/03/29 11:23:31;;;;;;;37.00;14.67;;;18.50;39.10;;;;;;5026559;28;20450;-77
2022/03/29 11:26:03;;;;;;;31.73;15.80;;;18.70;38.80;;;;;;5016263;28;20421;-77
2022/03/29 11:28:30;;;;;;;28.10;15.70;;;19.00;38.40;;;;;;5008724;28;20515;-74
2022/03/29 11:30:56;;;;;;;29.13;15.40;;;19.30;38.00;;;;;;4996979;28;20482;-76
2022/03/29 11:33:31;;;;;;;40.03;15.90;;;19.40;37.40;;;;;;5009497;28;20441;-75
2022/03/29 11:35:57;;;;;;;31.33;15.63;;;19.50;37.20;;;;;;5006938;28;20216;-78
2022/03/29 11:38:23;;;;;;;30.30;14.60;;;19.10;37.50;;;;;;5013879;28;20423;-77
2022/03/29 11:40:48;;;;;;;30.60;14.80;;;19.10;37.90;;;;;;5013238;28;20682;-77
2022/03/29 11:43:22;;;;;;;29.60;16.73;;;19.40;37.40;;;;;;5003888;28;20234;-77
2022/03/29 11:45:48;;;;;;;27.30;14.50;;;19.40;37.20;;;;;;5012658;28;20248;-75
2022/03/29 11:48:18;;;;;;;38.37;16.30;;;19.50;37.00;;;;;;5013192;28;20532;-77
2022/03/29 11:50:45;;;;;;;31.60;15.40;;;19.50;37.20;;;;;;5005129;28;20490;-76
2022/03/29 11:53:21;;;;;;;35.20;16.63;;;19.60;37.10;;;;;;5014089;28;20449;-76
2022/03/29 11:55:57;;;;;;;31.97;16.10;;;19.40;37.40;;;;;;5017435;28;20418;-75
2022/03/29 11:58:27;;;;;;;28.60;15.10;;;19.40;37.10;;;;;;5024266;28;20431;-77
2022/03/29 12:01:15;;;;;;;29.53;15.90;;;19.30;37.10;;;;;;5012688;28;20417;-75
2022/03/29 12:03:45;;;;;;;31.23;14.40;;;19.20;37.80;;;;;;5020355;28;20519;-78
2022/03/29 12:06:24;;;;;;;27.13;14.10;;;19.20;37.60;;;;;;5020827;28;20416;-76
2022/03/29 12:08:52;;;;;;;28.33;14.17;;;19.50;37.40;;;;;;5019277;28;20419;-76
2022/03/29 12:11:37;;;;;;;30.50;14.40;;;19.60;37.10;;;;;;5022267;28;20417;-75
2022/03/29 12:14:09;;;;;;;31.27;15.67;;;19.50;37.00;;;;;;5005675;28;20457;-74
2022/03/29 12:16:36;;;;;;;27.50;14.40;;;19.40;36.70;;;;;;5003307;28;20441;-77
2022/03/29 12:19:07;;;;;;;27.87;14.20;;;19.30;37.10;;;;;;5021743;28;20456;-76
2022/03/29 12:21:32;;;;;;;30.53;15.10;;;19.60;36.70;;;;;;5022780;28;20413;-75
2022/03/29 12:24:08;;;;;;;32.73;16.20;;;19.80;36.30;;;;;;5022803;28;21014;-78
2022/03/29 12:26:39;;;;;;;34.87;15.97;;;19.50;36.70;;;;;;5024185;28;20170;-76
2022/03/29 12:29:09;;;;;;;28.47;15.23;;;19.60;36.60;;;;;;5023177;28;20439;-76
2022/03/29 12:31:36;;;;;;;36.20;16.03;;;19.50;36.40;;;;;;5021138;28;20407;-75
2022/03/29 12:34:02;;;;;;;28.60;15.23;;;19.30;37.10;;;;;;5011094;28;20436;-76
2022/03/29 12:36:28;;;;;;;31.90;15.00;;;19.20;37.20;;;;;;5006605;28;20505;-75
2022/03/29 12:39:05;;;;;;;30.60;15.60;;;19.10;37.60;;;;;;5017888;28;20510;-75
2022/03/29 12:41:38;;;;;;;29.50;16.10;;;19.20;37.40;;;;;;5010799;28;20181;-74
2022/03/29 12:44:07;;;;;;;32.00;16.03;;;19.30;37.20;;;;;;5020544;28;20431;-75
2022/03/29 12:46:34;;;;;;;40.63;17.20;;;19.40;36.80;;;;;;5014888;28;20411;-75
2022/03/29 12:49:00;;;;;;;33.63;16.47;;;19.20;37.10;;;;;;5014511;28;20481;-77